HBSGO LSZG-ZZZZ

Flight info

Callsign HBSGO
Flight time N/A
Altitude 3000
Route LSZG
Aircraft DA40/L-SFG/S

Departure

Time 2026-04-19 10:53
Airport Grenchen Airfield (LSZG)

Arrival

Time N/A
Airport ZZZZ
Time Latitude Longitude Altitude Speed Heading
2026-04-19 10:45 47.18163 7.41208 1412 ft 0 kts 62°
2026-04-19 10:47 47.18168 7.41225 1412 ft 4 kts 94°
2026-04-19 10:47 47.18172 7.41270 1411 ft 5 kts 80°
2026-04-19 10:47 47.18158 7.41303 1412 ft 6 kts 59°
2026-04-19 10:48 47.18188 7.41395 1411 ft 11 kts 65°
2026-04-19 10:48 47.18218 7.41489 1412 ft 7 kts 68°
2026-04-19 10:48 47.18239 7.41563 1416 ft 10 kts 66°
2026-04-19 10:48 47.18270 7.41664 1411 ft 8 kts 74°
2026-04-19 10:49 47.18264 7.41756 1405 ft 13 kts 106°
2026-04-19 10:49 47.18248 7.41845 1407 ft 3 kts 104°
2026-04-19 10:49 47.18247 7.41846 1407 ft 0 kts 105°
2026-04-19 10:50 47.18236 7.41913 1404 ft 15 kts 100°
2026-04-19 10:51 47.18263 7.42040 1404 ft 13 kts 65°
2026-04-19 10:51 47.18308 7.42189 1407 ft 16 kts 65°
2026-04-19 10:51 47.18345 7.42285 1404 ft 3 kts 92°
2026-04-19 10:51 47.18336 7.42280 1405 ft 0 kts 248°
2026-04-19 10:52 47.18329 7.42254 1405 ft 16 kts 249°
2026-04-19 10:52 47.18221 7.41914 1407 ft 57 kts 247°
2026-04-19 10:52 47.18040 7.41322 1584 ft 62 kts 255°
2026-04-19 10:52 47.17858 7.40745 1785 ft 65 kts 256°
2026-04-19 10:53 47.17659 7.40119 1908 ft 68 kts 253°
2026-04-19 10:53 47.17428 7.39523 2003 ft 73 kts 222°
2026-04-19 10:53 47.16889 7.39523 2045 ft 86 kts 170°
2026-04-19 10:53 47.16295 7.39851 2135 ft 97 kts 151°
2026-04-19 10:54 47.15999 7.40759 2161 ft 103 kts 93°
2026-04-19 10:54 47.16286 7.41635 2080 ft 100 kts 31°
2026-04-19 10:54 47.16862 7.42154 2095 ft 97 kts 27°
2026-04-19 10:54 47.17293 7.42943 2139 ft 102 kts 58°
2026-04-19 10:55 47.17605 7.43833 2109 ft 91 kts 59°
2026-04-19 10:55 47.17987 7.44446 1969 ft 75 kts
2026-04-19 10:55 47.18454 7.44320 1932 ft 68 kts 326°
2026-04-19 10:55 47.18740 7.43841 1778 ft 66 kts 288°
2026-04-19 10:56 47.18603 7.43174 1612 ft 69 kts 257°
2026-04-19 10:56 47.18417 7.42552 1455 ft 64 kts 253°
2026-04-19 10:56 47.18246 7.41994 1404 ft 56 kts 245°
2026-04-19 10:56 47.18062 7.41386 1552 ft 68 kts 251°
2026-04-19 10:57 47.17846 7.40738 1713 ft 76 kts 251°
2026-04-19 10:57 47.17608 7.39992 1841 ft 81 kts 250°
2026-04-19 10:57 47.17297 7.39339 2012 ft 86 kts 206°
2026-04-19 10:57 47.16677 7.39617 2042 ft 101 kts 155°
2026-04-19 10:58 47.16122 7.40254 2123 ft 104 kts 126°
2026-04-19 10:58 47.16055 7.41273 2154 ft 101 kts 62°
2026-04-19 10:58 47.16592 7.41899 2067 ft 101 kts 12°
2026-04-19 10:58 47.17135 7.42511 2068 ft 106 kts 59°
2026-04-19 10:59 47.17419 7.43494 2063 ft 102 kts 64°
2026-04-19 10:59 47.17752 7.44303 2005 ft 85 kts 24°
2026-04-19 10:59 47.18296 7.44384 1924 ft 71 kts 345°
2026-04-19 10:59 47.18678 7.44103 1830 ft 58 kts 303°
2026-04-19 11:00 47.18716 7.43525 1726 ft 62 kts 261°
2026-04-19 11:00 47.18534 7.42941 1549 ft 62 kts 256°
2026-04-19 11:00 47.18366 7.42383 1430 ft 58 kts 256°
2026-04-19 11:00 47.18207 7.41871 1436 ft 55 kts 259°
2026-04-19 11:01 47.18034 7.41299 1598 ft 63 kts 261°
2026-04-19 11:01 47.17843 7.40690 1765 ft 71 kts 256°
2026-04-19 11:01 47.17612 7.40002 1880 ft 79 kts 253°
2026-04-19 11:01 47.17391 7.39287 2065 ft 74 kts 251°
2026-04-19 11:02 47.17157 7.38591 2152 ft 80 kts 248°
2026-04-19 11:02 47.16834 7.37902 2280 ft 87 kts 214°
2026-04-19 11:02 47.16222 7.38032 2465 ft 96 kts 160°
2026-04-19 11:02 47.15633 7.38494 2605 ft 97 kts 158°
2026-04-19 11:03 47.15023 7.39009 2718 ft 102 kts 150°
2026-04-19 11:03 47.14461 7.39608 2875 ft 104 kts 136°
2026-04-19 11:03 47.14212 7.40618 2996 ft 109 kts 83°
2026-04-19 11:03 47.14468 7.41652 3074 ft 112 kts 59°
2026-04-19 11:04 47.14837 7.42701 3064 ft 125 kts 56°
2026-04-19 11:04 47.15204 7.43913 2998 ft 131 kts 59°
2026-04-19 11:04 47.15545 7.45137 3002 ft 128 kts 61°
2026-04-19 11:04 47.15832 7.46371 2987 ft 130 kts 82°
2026-04-19 11:05 47.15599 7.47640 2992 ft 130 kts 127°
2026-04-19 11:05 47.14971 7.48528 3045 ft 122 kts 143°
2026-04-19 11:05 47.14359 7.49339 3166 ft 115 kts 142°
2026-04-19 11:05 47.13770 7.50115 3281 ft 111 kts 144°
2026-04-19 11:06 47.13377 7.50572 3347 ft 105 kts 148°
2026-04-19 11:06 47.12787 7.51145 3452 ft 101 kts 151°
2026-04-19 11:06 47.12004 7.51939 3628 ft 103 kts 150°
2026-04-19 11:06 47.11409 7.52567 3807 ft 108 kts 150°
2026-04-19 11:07 47.11006 7.53009 3937 ft 109 kts 150°
2026-04-19 11:07 47.10371 7.53721 4006 ft 122 kts 148°
2026-04-19 11:07 47.09656 7.54467 4010 ft 130 kts 150°
2026-04-19 11:07 47.08908 7.55253 4011 ft 135 kts 151°
2026-04-19 11:08 47.08455 7.56382 4031 ft 135 kts 77°
2026-04-19 11:08 47.09068 7.57071 4010 ft 113 kts 342°
2026-04-19 11:08 47.09301 7.56240 4012 ft 104 kts 236°
2026-04-19 11:08 47.08585 7.56249 3972 ft 126 kts 152°
2026-04-19 11:09 47.07885 7.56973 4000 ft 118 kts 148°
2026-04-19 11:09 47.07220 7.57663 3997 ft 116 kts 150°
2026-04-19 11:09 47.06559 7.58345 4000 ft 117 kts 151°
2026-04-19 11:09 47.05898 7.59066 3991 ft 118 kts 150°
2026-04-19 11:10 47.05236 7.59248 4007 ft 89 kts 230°
2026-04-19 11:10 47.05310 7.58540 4006 ft 94 kts 325°
2026-04-19 11:10 47.05955 7.58937 3991 ft 122 kts 58°
2026-04-19 11:10 47.05819 7.60077 3990 ft 117 kts 143°
2026-04-19 11:11 47.05165 7.60695 3967 ft 111 kts 152°
2026-04-19 11:11 47.04521 7.61341 3929 ft 113 kts 138°
2026-04-19 11:11 47.04684 7.62137 3909 ft 93 kts 336°
2026-04-19 11:11 47.04496 7.61669 3900 ft 107 kts 166°
2026-04-19 11:12 47.03908 7.62452 3784 ft 118 kts 139°
2026-04-19 11:12 47.03260 7.62639 3869 ft 96 kts 230°
2026-04-19 11:12 47.03219 7.61791 3905 ft 95 kts 315°
2026-04-19 11:12 47.03883 7.61589 4016 ft 101 kts 346°
2026-04-19 11:13 47.04527 7.61432 4124 ft 89 kts 328°
2026-04-19 11:13 47.04933 7.60807 4044 ft 88 kts 267°
2026-04-19 11:13 47.04429 7.60889 4000 ft 119 kts 97°
2026-04-19 11:13 47.04862 7.61278 3927 ft 82 kts 298°
2026-04-19 11:14 47.04969 7.60433 3847 ft 87 kts 279°
2026-04-19 11:14 47.05095 7.59552 3927 ft 89 kts 288°
2026-04-19 11:14 47.05574 7.58984 3977 ft 101 kts 344°
2026-04-19 11:14 47.06285 7.58969 4013 ft 102 kts 355°
2026-04-19 11:15 47.06992 7.58937 3997 ft 100 kts 347°
2026-04-19 11:15 47.07644 7.58657 4014 ft 95 kts 322°
2026-04-19 11:15 47.08179 7.58092 4035 ft 96 kts 316°
2026-04-19 11:15 47.08685 7.57498 4110 ft 92 kts 313°
2026-04-19 11:16 47.09188 7.56886 4093 ft 98 kts 315°
2026-04-19 11:16 47.09714 7.56253 4110 ft 97 kts 316°
2026-04-19 11:16 47.10222 7.55624 4112 ft 97 kts 312°
2026-04-19 11:16 47.10702 7.54915 4095 ft 98 kts 309°
2026-04-19 11:17 47.11121 7.54148 3997 ft 98 kts 305°
2026-04-19 11:17 47.11501 7.53325 3932 ft 96 kts 300°
2026-04-19 11:17 47.11838 7.52528 3964 ft 87 kts 298°
2026-04-19 11:17 47.12162 7.51796 4003 ft 85 kts 301°
2026-04-19 11:18 47.12614 7.51211 3998 ft 91 kts 325°
2026-04-19 11:18 47.13224 7.50815 3830 ft 98 kts 330°
2026-04-19 11:18 47.13842 7.50446 3596 ft 96 kts 330°
2026-04-19 11:18 47.14463 7.50058 3445 ft 96 kts 330°
2026-04-19 11:19 47.15069 7.49709 3329 ft 95 kts 334°
2026-04-19 11:19 47.15706 7.49382 3185 ft 98 kts 334°
2026-04-19 11:19 47.16333 7.49055 3002 ft 91 kts 335°
2026-04-19 11:19 47.16908 7.48768 2849 ft 85 kts 334°
2026-04-19 11:20 47.17491 7.48522 2738 ft 89 kts 334°
2026-04-19 11:20 47.18067 7.48214 2576 ft 86 kts 323°
2026-04-19 11:20 47.18487 7.47624 2404 ft 80 kts 300°
2026-04-19 11:20 47.18675 7.46891 2183 ft 74 kts 292°
2026-04-19 11:21 47.18762 7.46194 2007 ft 66 kts 277°
2026-04-19 11:21 47.18717 7.45512 1900 ft 64 kts 275°
2026-04-19 11:21 47.18693 7.44891 1828 ft 60 kts 281°
2026-04-19 11:22 47.18731 7.43739 1676 ft 59 kts 272°
2026-04-19 11:22 47.18603 7.43159 1564 ft 64 kts 251°
2026-04-19 11:22 47.18424 7.42573 1466 ft 61 kts 257°
2026-04-19 11:22 47.18263 7.42044 1407 ft 54 kts 254°
2026-04-19 11:23 47.18084 7.41457 1508 ft 71 kts 258°
2026-04-19 11:23 47.17860 7.40792 1725 ft 74 kts 256°
2026-04-19 11:23 47.17634 7.40122 1924 ft 78 kts 251°
2026-04-19 11:23 47.17304 7.39430 1995 ft 92 kts 201°
2026-04-19 11:24 47.16647 7.39638 2092 ft 98 kts 168°
2026-04-19 11:24 47.16070 7.40192 2115 ft 105 kts 119°
2026-04-19 11:24 47.16052 7.41233 2129 ft 104 kts 58°
2026-04-19 11:24 47.16578 7.41862 2151 ft 99 kts 15°
2026-04-19 11:25 47.17114 7.42520 2164 ft 106 kts 56°
2026-04-19 11:25 47.17442 7.43452 2150 ft 100 kts 59°
2026-04-19 11:25 47.17751 7.44367 2085 ft 94 kts 42°
2026-04-19 11:25 47.18227 7.44573 2034 ft 66 kts 338°
2026-04-19 11:26 47.18629 7.44284 1883 ft 63 kts 315°
2026-04-19 11:26 47.18763 7.43727 1698 ft 62 kts 268°
2026-04-19 11:26 47.18587 7.43110 1568 ft 64 kts 257°
2026-04-19 11:26 47.18416 7.42548 1458 ft 57 kts 260°
2026-04-19 11:27 47.18260 7.42031 1405 ft 47 kts 246°
2026-04-19 11:27 47.18092 7.41493 1532 ft 60 kts 258°
2026-04-19 11:27 47.17917 7.40917 1701 ft 69 kts 256°
2026-04-19 11:27 47.17726 7.40247 1886 ft 69 kts 257°
2026-04-19 11:28 47.17518 7.39583 1985 ft 80 kts 238°
2026-04-19 11:28 47.16935 7.39486 2103 ft 97 kts 168°
2026-04-19 11:28 47.16313 7.39846 2184 ft 100 kts 155°
2026-04-19 11:28 47.15928 7.40721 2175 ft 113 kts 98°
2026-04-19 11:29 47.16182 7.41711 2185 ft 104 kts 22°
2026-04-19 11:29 47.16816 7.41979 2162 ft 95 kts 20°
2026-04-19 11:29 47.17211 7.42830 2127 ft 106 kts 53°
2026-04-19 11:29 47.17533 7.43741 2094 ft 93 kts 56°
2026-04-19 11:30 47.17874 7.44437 1990 ft 74 kts 17°
2026-04-19 11:30 47.18355 7.44489 1923 ft 65 kts 337°
2026-04-19 11:30 47.18670 7.44199 1798 ft 48 kts 302°
2026-04-19 11:30 47.18737 7.43726 1672 ft 54 kts 273°
2026-04-19 11:31 47.18608 7.43170 1555 ft 61 kts 254°
2026-04-19 11:31 47.18430 7.42594 1457 ft 61 kts 256°
2026-04-19 11:31 47.18268 7.42067 1407 ft 50 kts 244°
2026-04-19 11:31 47.18118 7.41581 1426 ft 65 kts 253°
2026-04-19 11:32 47.17934 7.41011 1681 ft 60 kts 256°
2026-04-19 11:32 47.17746 7.40431 1881 ft 64 kts 254°
2026-04-19 11:32 47.17540 7.39828 2057 ft 72 kts 255°
2026-04-19 11:32 47.17130 7.39400 2180 ft 94 kts 179°
2026-04-19 11:33 47.16481 7.39721 2196 ft 101 kts 166°
2026-04-19 11:33 47.15967 7.40381 2205 ft 103 kts 107°
2026-04-19 11:33 47.16095 7.41379 2152 ft 102 kts 44°
2026-04-19 11:33 47.16657 7.41844 2137 ft 91 kts
2026-04-19 11:34 47.17126 7.42513 2173 ft 105 kts 57°
2026-04-19 11:34 47.17435 7.43469 2156 ft 99 kts 54°
2026-04-19 11:34 47.17749 7.44342 2000 ft 91 kts 41°
2026-04-19 11:34 47.18245 7.44542 1937 ft 70 kts 338°
2026-04-19 11:35 47.18626 7.44270 1865 ft 54 kts 306°
2026-04-19 11:35 47.18730 7.43741 1742 ft 54 kts 276°
2026-04-19 11:35 47.18605 7.43175 1609 ft 58 kts 257°
2026-04-19 11:35 47.18451 7.42665 1487 ft 54 kts 255°
2026-04-19 11:36 47.18288 7.42126 1413 ft 56 kts 245°
2026-04-19 11:36 47.18140 7.41646 1445 ft 56 kts 256°
2026-04-19 11:36 47.17963 7.41076 1611 ft 63 kts 253°
2026-04-19 11:36 47.17759 7.40494 1731 ft 71 kts 254°
2026-04-19 11:37 47.17552 7.39788 1843 ft 76 kts 252°
2026-04-19 11:37 47.17060 7.39499 1925 ft 94 kts 173°
2026-04-19 11:37 47.16438 7.39822 2078 ft 93 kts 169°
2026-04-19 11:37 47.15975 7.40482 2168 ft 107 kts 100°
2026-04-19 11:38 47.16170 7.41488 2194 ft 102 kts 32°
2026-04-19 11:38 47.16770 7.41941 2187 ft 97 kts 18°
2026-04-19 11:38 47.17195 7.42759 2185 ft 104 kts 54°
2026-04-19 11:38 47.17508 7.43679 2086 ft 96 kts 54°
2026-04-19 11:39 47.17880 7.44488 1948 ft 90 kts 25°
2026-04-19 11:39 47.18385 7.44521 1922 ft 64 kts 330°
2026-04-19 11:39 47.18701 7.44171 1804 ft 53 kts 297°
2026-04-19 11:39 47.18731 7.43676 1705 ft 49 kts 269°
2026-04-19 11:40 47.18604 7.43144 1575 ft 62 kts 255°
2026-04-19 11:40 47.18423 7.42568 1467 ft 61 kts 254°
2026-04-19 11:40 47.18266 7.42052 1406 ft 46 kts 247°
2026-04-19 11:40 47.18107 7.41541 1462 ft 64 kts 253°
2026-04-19 11:41 47.17918 7.40959 1678 ft 65 kts 252°
2026-04-19 11:41 47.17706 7.40288 1786 ft 76 kts 254°
2026-04-19 11:41 47.17484 7.39654 2050 ft 69 kts 249°
2026-04-19 11:41 47.16924 7.39587 2099 ft 106 kts 162°
2026-04-19 11:42 47.16267 7.40000 2188 ft 105 kts 151°
2026-04-19 11:42 47.16021 7.40959 2200 ft 105 kts 76°
2026-04-19 11:42 47.16419 7.41756 2141 ft 96 kts 19°
2026-04-19 11:42 47.16992 7.42207 2157 ft 99 kts 50°
2026-04-19 11:43 47.17324 7.43119 2171 ft 101 kts 52°
2026-04-19 11:43 47.17645 7.44027 2092 ft 98 kts 56°
2026-04-19 11:43 47.18132 7.44501 1941 ft 77 kts 349°
2026-04-19 11:43 47.18575 7.44362 1891 ft 58 kts 322°
2026-04-19 11:44 47.18784 7.43913 1740 ft 54 kts 281°
2026-04-19 11:44 47.18662 7.43363 1632 ft 60 kts 256°
2026-04-19 11:44 47.18488 7.42784 1506 ft 61 kts 254°
2026-04-19 11:44 47.18323 7.42241 1423 ft 56 kts 256°
2026-04-19 11:45 47.18183 7.41788 1408 ft 42 kts 246°
2026-04-19 11:45 47.18026 7.41266 1520 ft 59 kts 256°
2026-04-19 11:45 47.17848 7.40725 1744 ft 59 kts 255°
2026-04-19 11:45 47.17674 7.40085 1873 ft 70 kts 257°
2026-04-19 11:46 47.17431 7.39458 2009 ft 80 kts 222°
2026-04-19 11:46 47.16823 7.39487 2108 ft 96 kts 163°
2026-04-19 11:46 47.16211 7.39936 2229 ft 105 kts 143°
2026-04-19 11:46 47.15929 7.40902 2228 ft 109 kts 78°
2026-04-19 11:47 47.16345 7.41675 2161 ft 96 kts 17°
2026-04-19 11:47 47.16916 7.42161 2124 ft 101 kts 34°
2026-04-19 11:47 47.17260 7.43067 2104 ft 99 kts 56°
2026-04-19 11:47 47.17567 7.43957 2039 ft 95 kts 48°
2026-04-19 11:48 47.18042 7.44535 1896 ft 81 kts 354°
2026-04-19 11:48 47.18502 7.44382 1860 ft 57 kts 323°
2026-04-19 11:48 47.18747 7.44016 1762 ft 47 kts 287°
2026-04-19 11:48 47.18718 7.43565 1665 ft 49 kts 264°
2026-04-19 11:49 47.18582 7.43087 1557 ft 56 kts 255°
2026-04-19 11:49 47.18413 7.42539 1469 ft 59 kts 255°
2026-04-19 11:49 47.18262 7.42039 1405 ft 45 kts 245°
2026-04-19 11:49 47.18092 7.41495 1503 ft 63 kts 255°
2026-04-19 11:50 47.17884 7.40911 1665 ft 72 kts 251°
2026-04-19 11:50 47.17676 7.40202 1805 ft 80 kts 253°
2026-04-19 11:50 47.17450 7.39478 2013 ft 74 kts 255°
2026-04-19 11:50 47.17193 7.38773 2132 ft 81 kts 246°
2026-04-19 11:51 47.16880 7.38088 2274 ft 84 kts 234°
2026-04-19 11:51 47.16263 7.37947 2522 ft 108 kts 168°
2026-04-19 11:51 47.15571 7.38442 2787 ft 109 kts 158°
2026-04-19 11:51 47.14907 7.38975 3007 ft 113 kts 152°
2026-04-19 11:52 47.14221 7.39542 3221 ft 110 kts 153°
2026-04-19 11:52 47.13701 7.40280 3421 ft 106 kts 125°
2026-04-19 11:52 47.13389 7.41265 3687 ft 107 kts 103°
2026-04-19 11:52 47.13186 7.42336 3928 ft 110 kts 103°
2026-04-19 11:53 47.12983 7.43504 3989 ft 128 kts 103°
2026-04-19 11:53 47.12782 7.44825 4002 ft 137 kts 102°
2026-04-19 11:53 47.12576 7.46222 4002 ft 142 kts 101°
2026-04-19 11:53 47.12395 7.47673 3989 ft 146 kts 100°
2026-04-19 11:54 47.12277 7.48632 3992 ft 143 kts 101°
2026-04-19 11:54 47.12105 7.50084 4003 ft 147 kts 99°
2026-04-19 11:54 47.11909 7.51564 3989 ft 145 kts 100°
2026-04-19 11:54 47.11569 7.52910 3994 ft 140 kts 131°
2026-04-19 11:55 47.10874 7.53905 3996 ft 137 kts 143°
2026-04-19 11:55 47.10172 7.54821 4000 ft 134 kts 143°
2026-04-19 11:55 47.09480 7.55703 4000 ft 134 kts 143°
2026-04-19 11:55 47.08779 7.56619 3997 ft 134 kts 143°
2026-04-19 11:56 47.08082 7.57511 3995 ft 133 kts 143°
2026-04-19 11:56 47.07393 7.58403 3997 ft 132 kts 143°
2026-04-19 11:56 47.06705 7.59278 4078 ft 127 kts 143°
2026-04-19 11:56 47.06100 7.60089 4400 ft 111 kts 142°
2026-04-19 11:57 47.05537 7.60846 4624 ft 109 kts 142°
2026-04-19 11:57 47.04975 7.61579 4833 ft 109 kts 142°
2026-04-19 11:57 47.04410 7.62335 4997 ft 115 kts 143°
2026-04-19 11:57 47.03786 7.63188 5004 ft 129 kts 143°
2026-04-19 11:58 47.03102 7.64108 5005 ft 136 kts 142°
2026-04-19 11:58 47.02384 7.65040 5003 ft 139 kts 143°
2026-04-19 11:58 47.01575 7.65793 4990 ft 136 kts 170°
2026-04-19 11:58 47.00688 7.65799 4988 ft 122 kts 210°
2026-04-19 11:59 47.00063 7.65071 4990 ft 112 kts 234°
2026-04-19 11:59 46.99570 7.64234 4992 ft 106 kts 236°
2026-04-19 11:59 46.99086 7.63397 4992 ft 108 kts 237°
2026-04-19 11:59 46.98590 7.62563 4997 ft 110 kts 236°
2026-04-19 12:00 46.98098 7.61706 4995 ft 109 kts 236°
2026-04-19 12:00 46.97613 7.60837 4896 ft 115 kts 237°
2026-04-19 12:00 46.97081 7.59915 4686 ft 121 kts 236°
2026-04-19 12:00 46.96532 7.58943 4491 ft 129 kts 237°
2026-04-19 12:01 46.95952 7.57919 4282 ft 131 kts 238°
2026-04-19 12:01 46.95384 7.56887 4086 ft 130 kts 238°
2026-04-19 12:01 46.94816 7.55848 3876 ft 131 kts 239°
2026-04-19 12:01 46.94249 7.54826 3673 ft 128 kts 238°
2026-04-19 12:02 46.93713 7.53824 3483 ft 122 kts 239°
2026-04-19 12:02 46.93189 7.52878 3252 ft 116 kts 238°
2026-04-19 12:02 46.92686 7.51977 3071 ft 110 kts 233°
2026-04-19 12:02 46.92007 7.51484 2974 ft 115 kts 182°
2026-04-19 12:03 46.91304 7.51917 2976 ft 110 kts 146°
2026-04-19 12:03 46.90703 7.52550 2975 ft 106 kts 139°
2026-04-19 12:03 46.90146 7.53246 2966 ft 105 kts 136°
2026-04-19 12:03 46.89531 7.53615 2842 ft 92 kts 199°
2026-04-19 12:04 46.89115 7.53057 2626 ft 81 kts 253°
2026-04-19 12:04 46.89233 7.52354 2399 ft 70 kts 314°
2026-04-19 12:04 46.89599 7.51920 2185 ft 68 kts 320°
2026-04-19 12:04 46.89964 7.51484 2032 ft 67 kts 321°
2026-04-19 12:05 46.90309 7.51054 1876 ft 64 kts 321°
2026-04-19 12:05 46.90528 7.50796 1801 ft 67 kts 320°
2026-04-19 12:05 46.90875 7.50372 1696 ft 61 kts 320°
2026-04-19 12:05 46.91051 7.50161 1698 ft 5 kts 353°
2026-04-19 12:06 46.91083 7.50191 1703 ft 7 kts 50°
2026-04-19 12:06 46.91111 7.50244 1695 ft 5 kts 70°
2026-04-19 12:06 46.91097 7.50290 1695 ft 5 kts 71°
2026-04-19 12:06 46.91106 7.50292 1695 ft 0 kts 322°